Time;durP1;ratioP1;P1;durP2;ratioP2;P2;SDS_P1;SDS_P2;PMS_P1;PMS_P2;Temp;Humidity;BMP_temperature;BMP_pressure;BME280_temperature;BME280_humidity;BME280_pressure;Samples;Min_cycle;Max_cycle;Signal;HPM_P1;HPM_P2
2024/01/14 00:01:23;;;;;;;184.47;48.70;;;;;;;;;;4993424;28;20495;-45
2024/01/14 00:03:49;;;;;;;184.30;47.63;;;;;;;;;;4992844;28;20459;-44
2024/01/14 00:06:15;;;;;;;186.93;49.03;;;;;;;;;;4993383;28;20237;-44
2024/01/14 00:08:41;;;;;;;184.67;47.83;;;;;;;;;;4996533;28;20411;-44
2024/01/14 00:11:07;;;;;;;184.33;47.60;;;;;;;;;;4996275;28;20503;-44
2024/01/14 00:13:33;;;;;;;183.75;48.67;;;;;;;;;;4999948;28;20424;-44
2024/01/14 00:15:59;;;;;;;115.47;43.40;;;;;;;;;;4993130;28;20177;-44
2024/01/14 00:18:25;;;;;;;183.85;48.85;;;;;;;;;;4996020;28;20439;-44
2024/01/14 00:20:51;;;;;;;187.17;49.70;;;;;;;;;;4997497;28;20212;-44
2024/01/14 00:23:17;;;;;;;182.30;47.30;;;;;;;;;;4998192;28;20477;-45
2024/01/14 00:25:43;;;;;;;187.63;48.45;;;;;;;;;;4997957;28;20420;-44
2024/01/14 00:28:09;;;;;;;188.02;49.40;;;;;;;;;;4995564;28;20169;-45
2024/01/14 00:30:35;;;;;;;185.90;48.60;;;;;;;;;;4991762;28;20234;-45
2024/01/14 00:33:01;;;;;;;184.57;48.38;;;;;;;;;;4994929;28;20419;-44
2024/01/14 00:35:27;;;;;;;187.70;49.17;;;;;;;;;;4997126;28;20177;-44
2024/01/14 00:37:54;;;;;;;186.27;48.10;;;;;;;;;;4998936;28;20207;-44
2024/01/14 00:40:20;;;;;;;187.73;49.17;;;;;;;;;;4992809;28;20424;-44
2024/01/14 00:42:46;;;;;;;191.73;52.20;;;;;;;;;;4992283;28;20271;-44
2024/01/14 00:45:12;;;;;;;183.30;47.92;;;;;;;;;;4992521;28;20471;-44
2024/01/14 00:47:38;;;;;;;183.73;47.95;;;;;;;;;;4992701;28;20240;-44
2024/01/14 00:50:04;;;;;;;184.50;47.70;;;;;;;;;;4992666;28;20205;-44
2024/01/14 00:52:32;;;;;;;188.38;52.72;;;;;;;;;;4991977;28;20406;-44
2024/01/14 00:54:58;;;;;;;182.35;47.33;;;;;;;;;;5000149;28;20255;-45
2024/01/14 00:57:24;;;;;;;186.33;48.80;;;;;;;;;;4992649;28;20180;-44
2024/01/14 00:59:50;;;;;;;186.57;48.90;;;;;;;;;;4995234;28;20416;-44
2024/01/14 01:02:16;;;;;;;186.10;48.77;;;;;;;;;;4992277;28;20474;-44
2024/01/14 01:04:42;;;;;;;184.60;48.13;;;;;;;;;;4991666;28;20436;-44
2024/01/14 01:07:08;;;;;;;184.48;48.53;;;;;;;;;;4991788;28;20172;-45
2024/01/14 01:09:34;;;;;;;184.67;47.87;;;;;;;;;;4992463;28;20169;-44
2024/01/14 01:12:00;;;;;;;184.82;48.75;;;;;;;;;;4992277;28;20480;-45
2024/01/14 01:14:26;;;;;;;164.05;46.38;;;;;;;;;;4991489;28;20743;-45
2024/01/14 01:16:52;;;;;;;185.10;48.00;;;;;;;;;;4996562;28;20181;-45
2024/01/14 01:19:18;;;;;;;186.55;48.85;;;;;;;;;;4998100;28;20202;-45
2024/01/14 01:21:44;;;;;;;185.13;47.88;;;;;;;;;;4992142;28;20215;-45
2024/01/14 01:24:13;;;;;;;99.23;35.17;;;;;;;;;;4991521;28;20290;-44
2024/01/14 01:26:39;;;;;;;177.70;48.00;;;;;;;;;;4991939;28;20424;-44
2024/01/14 01:29:05;;;;;;;179.33;47.90;;;;;;;;;;4992166;28;20611;-45
2024/01/14 01:31:31;;;;;;;169.87;45.83;;;;;;;;;;4992070;28;20418;-44
2024/01/14 01:33:57;;;;;;;183.87;48.27;;;;;;;;;;4997650;28;20481;-45
2024/01/14 01:36:23;;;;;;;181.43;47.90;;;;;;;;;;4999567;28;20416;-45
2024/01/14 01:38:49;;;;;;;180.07;47.77;;;;;;;;;;4992114;28;20419;-44
2024/01/14 01:41:15;;;;;;;183.80;50.37;;;;;;;;;;4994467;28;20419;-45
2024/01/14 01:43:41;;;;;;;183.70;49.10;;;;;;;;;;4992570;28;20435;-44
2024/01/14 01:46:08;;;;;;;186.52;49.25;;;;;;;;;;4994766;28;20404;-45
2024/01/14 01:48:35;;;;;;;184.82;48.40;;;;;;;;;;4986283;28;20180;-44
2024/01/14 01:51:02;;;;;;;184.88;48.20;;;;;;;;;;4992131;28;20213;-44
2024/01/14 01:53:28;;;;;;;186.38;48.90;;;;;;;;;;4991153;28;20203;-44
2024/01/14 01:55:55;;;;;;;183.93;48.00;;;;;;;;;;4994672;28;20185;-44
2024/01/14 01:58:21;;;;;;;184.80;49.47;;;;;;;;;;4992284;28;20644;-44
2024/01/14 02:00:48;;;;;;;185.80;53.17;;;;;;;;;;4991310;28;20232;-44
2024/01/14 02:03:14;;;;;;;119.63;40.00;;;;;;;;;;4989732;28;20677;-45
2024/01/14 02:05:40;;;;;;;128.95;39.45;;;;;;;;;;4991358;28;20185;-45
2024/01/14 02:08:07;;;;;;;119.25;41.90;;;;;;;;;;4992039;28;20274;-45
2024/01/14 02:10:33;;;;;;;147.45;45.67;;;;;;;;;;4994277;28;20585;-44
2024/01/14 02:12:59;;;;;;;180.52;47.95;;;;;;;;;;4995164;28;20183;-45
2024/01/14 02:18:29;;;;;;;180.15;48.55;;;;;;;;;;4985895;28;20534;-45
2024/01/14 02:20:56;;;;;;;180.00;49.00;;;;;;;;;;4995568;28;20177;-44
2024/01/14 02:23:22;;;;;;;179.05;47.90;;;;;;;;;;4996855;28;20543;-44
2024/01/14 02:25:48;;;;;;;182.13;49.25;;;;;;;;;;4997394;28;20215;-45
2024/01/14 02:28:15;;;;;;;185.25;49.08;;;;;;;;;;4997069;28;20612;-45
2024/01/14 02:30:41;;;;;;;184.40;48.63;;;;;;;;;;5000883;28;20183;-44
2024/01/14 02:33:07;;;;;;;188.02;50.22;;;;;;;;;;5001736;28;20203;-44
2024/01/14 02:35:33;;;;;;;183.63;48.00;;;;;;;;;;4994284;28;20664;-44
2024/01/14 02:37:59;;;;;;;184.10;48.70;;;;;;;;;;4994965;28;20200;-44
2024/01/14 02:40:25;;;;;;;121.40;33.85;;;;;;;;;;4995010;28;20827;-44
2024/01/14 02:42:51;;;;;;;186.27;50.10;;;;;;;;;;4998201;28;20197;-44
2024/01/14 02:45:19;;;;;;;182.53;47.83;;;;;;;;;;4996456;28;20503;-44
2024/01/14 02:47:44;;;;;;;179.30;47.05;;;;;;;;;;4994925;28;20405;-44
2024/01/14 02:50:10;;;;;;;183.83;48.37;;;;;;;;;;4994973;28;20543;-44
2024/01/14 02:52:36;;;;;;;190.80;55.38;;;;;;;;;;4996472;28;20404;-45
2024/01/14 02:55:03;;;;;;;181.80;49.08;;;;;;;;;;4998674;28;20255;-44
2024/01/14 02:57:29;;;;;;;179.90;48.50;;;;;;;;;;5000246;28;20196;-45
2024/01/14 02:59:55;;;;;;;181.57;49.40;;;;;;;;;;5000795;28;20215;-45
2024/01/14 03:02:21;;;;;;;182.20;49.07;;;;;;;;;;4995465;28;20463;-45
2024/01/14 03:04:47;;;;;;;180.17;48.77;;;;;;;;;;4993312;28;20427;-45
2024/01/14 03:07:13;;;;;;;181.88;49.00;;;;;;;;;;4996736;28;20551;-45
2024/01/14 03:09:39;;;;;;;156.73;47.88;;;;;;;;;;4998249;28;20251;-44
2024/01/14 03:12:05;;;;;;;91.90;35.17;;;;;;;;;;4999887;28;20253;-44
2024/01/14 03:14:31;;;;;;;20.52;17.35;;;;;;;;;;5000794;28;20817;-44
2024/01/14 03:16:59;;;;;;;92.68;29.92;;;;;;;;;;4994428;28;20637;-45
2024/01/14 03:19:25;;;;;;;124.60;40.38;;;;;;;;;;4994259;28;20553;-45
2024/01/14 03:21:54;;;;;;;177.65;48.67;;;;;;;;;;4994120;28;20250;-44
2024/01/14 03:24:20;;;;;;;180.27;49.80;;;;;;;;;;4992166;28;20197;-45
2024/01/14 03:26:46;;;;;;;99.78;41.88;;;;;;;;;;4994079;28;20198;-45
2024/01/14 03:29:12;;;;;;;151.93;48.37;;;;;;;;;;4993716;28;20176;-45
2024/01/14 03:31:38;;;;;;;179.60;49.03;;;;;;;;;;4993464;28;20504;-45
2024/01/14 03:34:04;;;;;;;141.17;47.80;;;;;;;;;;4993227;28;20954;-44
2024/01/14 03:36:30;;;;;;;15.17;13.77;;;;;;;;;;4997855;28;20767;-44
2024/01/14 03:38:56;;;;;;;16.30;14.63;;;;;;;;;;4998344;28;20867;-45
2024/01/14 03:41:22;;;;;;;58.92;28.83;;;;;;;;;;4994636;28;20794;-44
2024/01/14 03:43:47;;;;;;;86.30;30.80;;;;;;;;;;4993121;28;20212;-45
2024/01/14 03:46:13;;;;;;;35.47;26.67;;;;;;;;;;4993796;28;20251;-45
2024/01/14 03:48:39;;;;;;;40.67;28.37;;;;;;;;;;4993838;28;20404;-45
2024/01/14 03:51:05;;;;;;;179.27;48.60;;;;;;;;;;4993744;28;20559;-45
2024/01/14 03:53:32;;;;;;;140.57;45.47;;;;;;;;;;4992911;28;20436;-45
2024/01/14 03:55:58;;;;;;;123.45;38.50;;;;;;;;;;4999855;28;20415;-45
2024/01/14 03:58:23;;;;;;;180.30;47.80;;;;;;;;;;4994202;28;20552;-45
2024/01/14 04:00:49;;;;;;;104.73;37.53;;;;;;;;;;4993818;28;20926;-45
2024/01/14 04:03:15;;;;;;;37.73;30.80;;;;;;;;;;4993668;28;20586;-45
2024/01/14 04:05:41;;;;;;;97.95;34.60;;;;;;;;;;4993235;28;20451;-44
2024/01/14 04:08:07;;;;;;;109.10;35.65;;;;;;;;;;4998757;28;20183;-45
2024/01/14 04:10:33;;;;;;;136.88;44.00;;;;;;;;;;5000314;28;20538;-45
2024/01/14 04:12:59;;;;;;;56.58;27.77;;;;;;;;;;4992623;28;20183;-45
2024/01/14 04:15:25;;;;;;;32.97;28.97;;;;;;;;;;4992318;28;20236;-45
2024/01/14 04:17:51;;;;;;;16.60;14.90;;;;;;;;;;4993380;28;20408;-45
2024/01/14 04:20:17;;;;;;;26.10;19.97;;;;;;;;;;4993366;28;20496;-45
2024/01/14 04:22:43;;;;;;;14.95;11.65;;;;;;;;;;4992502;28;20463;-44
2024/01/14 04:25:09;;;;;;;9.40;8.23;;;;;;;;;;4993715;28;20269;-44
2024/01/14 04:27:37;;;;;;;72.20;36.03;;;;;;;;;;4993264;28;20169;-44
2024/01/14 04:30:03;;;;;;;41.50;27.30;;;;;;;;;;4993265;28;20769;-44
2024/01/14 04:32:29;;;;;;;42.97;34.03;;;;;;;;;;4992572;28;20173;-45
2024/01/14 04:34:55;;;;;;;48.13;29.48;;;;;;;;;;4993065;28;20271;-44
2024/01/14 04:37:21;;;;;;;112.67;35.70;;;;;;;;;;4993356;28;20653;-45
2024/01/14 04:39:47;;;;;;;87.60;42.17;;;;;;;;;;4993023;28;20910;-44
2024/01/14 04:42:13;;;;;;;10.57;9.47;;;;;;;;;;4992408;28;20969;-44
2024/01/14 04:44:39;;;;;;;16.80;15.27;;;;;;;;;;4992294;28;20920;-45
2024/01/14 04:47:05;;;;;;;54.03;31.67;;;;;;;;;;4992796;28;20408;-45
2024/01/14 04:49:31;;;;;;;15.53;14.00;;;;;;;;;;4993142;28;20412;-44
2024/01/14 04:51:57;;;;;;;15.23;13.77;;;;;;;;;;4992894;28;20410;-44
2024/01/14 04:54:23;;;;;;;15.73;14.07;;;;;;;;;;4992342;28;20432;-44
2024/01/14 04:56:49;;;;;;;26.80;18.73;;;;;;;;;;4992806;28;20415;-44
2024/01/14 04:59:14;;;;;;;79.23;37.43;;;;;;;;;;4992729;28;20419;-45
2024/01/14 05:01:40;;;;;;;40.00;35.10;;;;;;;;;;4992513;28;20467;-45
2024/01/14 05:04:06;;;;;;;49.83;42.25;;;;;;;;;;4990937;28;20425;-44
2024/01/14 05:06:34;;;;;;;48.72;40.45;;;;;;;;;;4992697;28;20163;-45
2024/01/14 05:09:00;;;;;;;49.90;41.90;;;;;;;;;;4992648;28;20883;-44
2024/01/14 05:11:26;;;;;;;101.93;30.80;;;;;;;;;;4992612;28;20280;-44
2024/01/14 05:13:52;;;;;;;156.55;47.75;;;;;;;;;;4991729;28;20784;-45
2024/01/14 05:16:18;;;;;;;90.97;34.57;;;;;;;;;;4992746;28;20165;-44
2024/01/14 05:18:45;;;;;;;180.77;48.70;;;;;;;;;;4992706;28;20400;-44
2024/01/14 05:21:18;;;;;;;175.43;48.13;;;;;;;;;;4992466;28;20404;-44
2024/01/14 05:23:44;;;;;;;11.02;7.60;;;;;;;;;;4991783;28;20199;-45
2024/01/14 05:26:10;;;;;;;8.48;7.25;;;;;;;;;;4992215;28;20560;-44
2024/01/14 05:28:36;;;;;;;8.43;6.75;;;;;;;;;;4992478;28;20172;-44
2024/01/14 05:31:04;;;;;;;8.50;6.68;;;;;;;;;;4992568;28;20287;-45
2024/01/14 05:33:30;;;;;;;10.15;7.95;;;;;;;;;;4991659;28;20215;-44
2024/01/14 05:35:56;;;;;;;123.70;36.20;;;;;;;;;;4992402;28;20204;-45
2024/01/14 05:38:21;;;;;;;156.65;43.47;;;;;;;;;;4992376;28;20395;-44
2024/01/14 05:40:48;;;;;;;178.00;48.60;;;;;;;;;;4993090;28;20173;-45
2024/01/14 05:43:14;;;;;;;12.30;8.38;;;;;;;;;;4991452;28;20510;-44
2024/01/14 05:45:40;;;;;;;8.23;6.63;;;;;;;;;;4992144;28;20169;-44
2024/01/14 05:48:06;;;;;;;8.15;6.88;;;;;;;;;;4992294;28;20403;-44
2024/01/14 05:50:32;;;;;;;8.50;7.13;;;;;;;;;;4992232;28;20177;-44
2024/01/14 05:52:58;;;;;;;9.40;8.20;;;;;;;;;;4992558;28;20173;-45
2024/01/14 05:55:24;;;;;;;8.50;6.30;;;;;;;;;;4995985;28;20848;-44
2024/01/14 05:57:50;;;;;;;7.93;6.40;;;;;;;;;;4996145;28;21038;-44
2024/01/14 06:00:18;;;;;;;19.17;9.43;;;;;;;;;;4996048;28;20452;-44
2024/01/14 06:02:44;;;;;;;181.02;52.10;;;;;;;;;;4995202;28;21018;-44
2024/01/14 06:05:10;;;;;;;177.03;47.73;;;;;;;;;;4995792;28;20192;-44
2024/01/14 06:07:36;;;;;;;175.00;46.60;;;;;;;;;;4995976;28;20404;-44
2024/01/14 06:10:02;;;;;;;27.67;11.03;;;;;;;;;;4995757;28;20403;-44
2024/01/14 06:12:28;;;;;;;11.15;9.57;;;;;;;;;;4995251;28;20879;-45
2024/01/14 06:14:54;;;;;;;8.37;6.67;;;;;;;;;;4995572;28;20200;-44
2024/01/14 06:17:20;;;;;;;8.37;7.20;;;;;;;;;;4995832;28;20404;-45
2024/01/14 06:19:46;;;;;;;8.32;7.40;;;;;;;;;;4995686;28;20478;-45
2024/01/14 06:22:13;;;;;;;9.40;7.03;;;;;;;;;;4995543;28;20688;-45
2024/01/14 06:24:39;;;;;;;9.60;7.40;;;;;;;;;;4994831;28;20419;-44
2024/01/14 06:27:05;;;;;;;9.10;7.03;;;;;;;;;;4995452;28;20222;-44
2024/01/14 06:29:31;;;;;;;7.93;5.87;;;;;;;;;;4995514;28;20203;-45
2024/01/14 06:31:58;;;;;;;7.97;6.33;;;;;;;;;;4995730;28;20402;-45
2024/01/14 06:34:24;;;;;;;8.77;6.72;;;;;;;;;;4994557;28;20514;-44
2024/01/14 06:36:50;;;;;;;9.23;7.93;;;;;;;;;;4995367;28;20170;-45
2024/01/14 06:39:16;;;;;;;10.40;8.73;;;;;;;;;;4995142;28;20637;-45
2024/01/14 06:41:42;;;;;;;8.20;7.40;;;;;;;;;;4995214;28;21035;-45
2024/01/14 06:44:08;;;;;;;8.40;6.93;;;;;;;;;;4994486;28;20932;-45
2024/01/14 06:46:34;;;;;;;8.20;7.13;;;;;;;;;;4995122;28;20489;-45
2024/01/14 06:49:00;;;;;;;14.20;12.60;;;;;;;;;;4995119;28;20405;-45
2024/01/14 06:51:26;;;;;;;59.13;25.23;;;;;;;;;;4995061;28;20409;-44
2024/01/14 06:53:52;;;;;;;115.30;34.20;;;;;;;;;;4994134;28;20599;-44
2024/01/14 06:56:18;;;;;;;10.37;8.80;;;;;;;;;;4995042;28;20180;-44
2024/01/14 06:58:44;;;;;;;8.43;6.83;;;;;;;;;;4995097;28;20412;-45
2024/01/14 07:01:10;;;;;;;15.25;13.77;;;;;;;;;;4994838;28;20404;-44
2024/01/14 07:03:36;;;;;;;11.93;9.63;;;;;;;;;;4992566;28;20220;-44
2024/01/14 07:06:02;;;;;;;116.00;37.07;;;;;;;;;;4993909;28;20442;-44
2024/01/14 07:08:30;;;;;;;175.55;48.42;;;;;;;;;;4994727;28;20396;-45
2024/01/14 07:10:56;;;;;;;177.05;47.45;;;;;;;;;;4994657;28;20184;-45
2024/01/14 07:13:22;;;;;;;108.97;34.92;;;;;;;;;;4993939;28;20185;-45
2024/01/14 07:15:48;;;;;;;168.70;48.37;;;;;;;;;;4994582;28;20169;-45
2024/01/14 07:18:14;;;;;;;173.70;48.77;;;;;;;;;;4994603;28;20412;-45
2024/01/14 07:20:41;;;;;;;130.13;40.47;;;;;;;;;;4994513;28;20412;-45
2024/01/14 07:23:07;;;;;;;162.38;47.00;;;;;;;;;;4992640;28;20459;-45
2024/01/14 07:25:33;;;;;;;164.90;45.63;;;;;;;;;;4993591;28;20328;-45
2024/01/14 07:28:00;;;;;;;70.30;23.03;;;;;;;;;;4993511;28;20403;-44
2024/01/14 07:30:26;;;;;;;171.32;48.03;;;;;;;;;;4993515;28;20783;-44
2024/01/14 07:32:53;;;;;;;11.17;9.93;;;;;;;;;;4993371;28;20181;-44
2024/01/14 07:35:19;;;;;;;131.65;42.92;;;;;;;;;;4993096;28;20498;-44
2024/01/14 07:37:45;;;;;;;175.97;47.23;;;;;;;;;;4993105;28;20633;-45
2024/01/14 07:40:11;;;;;;;176.80;47.90;;;;;;;;;;4993889;28;20784;-44
2024/01/14 07:42:37;;;;;;;188.07;59.03;;;;;;;;;;4992611;28;20546;-45
2024/01/14 07:45:03;;;;;;;178.73;48.38;;;;;;;;;;4993793;28;20676;-44
2024/01/14 07:47:29;;;;;;;177.82;47.95;;;;;;;;;;4990984;28;20204;-45
2024/01/14 07:49:55;;;;;;;158.55;45.00;;;;;;;;;;4992382;28;20184;-44
2024/01/14 07:52:21;;;;;;;156.47;43.73;;;;;;;;;;4993413;28;20599;-45
2024/01/14 07:54:49;;;;;;;125.50;35.65;;;;;;;;;;4993317;28;20420;-45
2024/01/14 07:57:15;;;;;;;177.65;46.70;;;;;;;;;;4993751;28;20211;-45
2024/01/14 07:59:40;;;;;;;178.07;47.60;;;;;;;;;;4991492;28;20185;-44
2024/01/14 08:02:07;;;;;;;180.80;49.80;;;;;;;;;;4992498;28;20492;-45
2024/01/14 08:04:33;;;;;;;178.65;47.53;;;;;;;;;;4992691;28;20471;-44
2024/01/14 08:06:59;;;;;;;178.95;46.97;;;;;;;;;;4996281;28;20207;-45
2024/01/14 08:09:25;;;;;;;177.83;47.67;;;;;;;;;;4994129;28;20616;-44
2024/01/14 08:11:50;;;;;;;178.07;47.57;;;;;;;;;;4989728;28;20789;-44
2024/01/14 08:14:16;;;;;;;168.63;46.73;;;;;;;;;;4992306;28;20440;-45
2024/01/14 08:16:42;;;;;;;151.90;42.97;;;;;;;;;;4993044;28;20412;-44
2024/01/14 08:19:10;;;;;;;167.03;45.77;;;;;;;;;;4994812;28;20412;-45
2024/01/14 08:21:36;;;;;;;132.45;38.00;;;;;;;;;;4989718;28;20412;-45
2024/01/14 08:24:03;;;;;;;176.07;47.00;;;;;;;;;;4987826;28;20267;-44
2024/01/14 08:26:29;;;;;;;78.88;25.90;;;;;;;;;;4983258;28;20550;-45
2024/01/14 08:28:55;;;;;;;16.67;10.07;;;;;;;;;;4989008;28;20510;-45
2024/01/14 08:31:21;;;;;;;118.97;35.65;;;;;;;;;;4992987;28;20181;-44
2024/01/14 08:33:47;;;;;;;21.27;10.80;;;;;;;;;;4992289;28;20576;-45
2024/01/14 08:36:13;;;;;;;10.10;8.93;;;;;;;;;;4992997;28;20777;-45
2024/01/14 08:38:39;;;;;;;67.95;25.15;;;;;;;;;;4997768;28;20412;-44
2024/01/14 08:41:06;;;;;;;169.32;47.13;;;;;;;;;;4999207;28;20164;-44
2024/01/14 08:43:32;;;;;;;176.38;48.08;;;;;;;;;;4995813;28;20246;-44
2024/01/14 08:45:58;;;;;;;178.80;50.17;;;;;;;;;;4997012;28;20176;-44
2024/01/14 08:48:23;;;;;;;178.23;48.00;;;;;;;;;;4992765;28;20408;-45
2024/01/14 08:50:50;;;;;;;180.50;48.40;;;;;;;;;;4994770;28;20418;-44
2024/01/14 08:53:16;;;;;;;178.50;47.80;;;;;;;;;;4996678;28;20436;-45
2024/01/14 08:55:42;;;;;;;180.97;49.60;;;;;;;;;;4999117;28;20527;-45
2024/01/14 08:58:08;;;;;;;180.57;49.37;;;;;;;;;;5000620;28;20762;-45
2024/01/14 09:00:34;;;;;;;176.77;51.60;;;;;;;;;;4992094;28;20931;-44
2024/01/14 09:03:01;;;;;;;185.87;48.10;;;;;;;;;;4991599;28;21217;-45
2024/01/14 09:05:27;;;;;;;187.52;48.85;;;;;;;;;;4992397;28;20479;-44
2024/01/14 09:07:54;;;;;;;185.30;48.50;;;;;;;;;;4987886;28;20256;-44
2024/01/14 09:10:20;;;;;;;188.57;49.35;;;;;;;;;;4998719;28;20433;-44
2024/01/14 09:12:46;;;;;;;87.23;46.70;;;;;;;;;;4992649;28;20196;-44
2024/01/14 09:15:13;;;;;;;178.43;47.37;;;;;;;;;;4992557;28;20519;-45
2024/01/14 09:17:39;;;;;;;162.55;44.25;;;;;;;;;;4993169;28;20416;-44
2024/01/14 09:20:05;;;;;;;181.63;47.95;;;;;;;;;;4997206;28;20184;-44
2024/01/14 09:22:31;;;;;;;62.55;37.60;;;;;;;;;;4994001;28;20193;-45
2024/01/14 09:24:59;;;;;;;149.47;45.60;;;;;;;;;;4996374;28;20223;-44
2024/01/14 09:27:27;;;;;;;180.70;48.05;;;;;;;;;;4992466;28;20431;-44
2024/01/14 09:29:53;;;;;;;184.98;48.83;;;;;;;;;;4992874;28;20588;-45
2024/01/14 09:32:19;;;;;;;189.65;50.25;;;;;;;;;;4995113;28;20176;-45
2024/01/14 09:34:45;;;;;;;148.75;42.88;;;;;;;;;;4996267;28;20211;-44
2024/01/14 09:37:13;;;;;;;183.03;49.17;;;;;;;;;;4998380;28;20609;-43
2024/01/14 09:39:39;;;;;;;182.27;48.80;;;;;;;;;;4991933;28;20420;-43
2024/01/14 09:42:14;;;;;;;8.75;7.70;;;;;;;;;;4989675;28;20200;-45
2024/01/14 09:44:40;;;;;;;120.03;34.67;;;;;;;;;;4989993;28;20271;-44
2024/01/14 09:47:08;;;;;;;16.35;12.75;;;;;;;;;;4988781;28;20645;-44
2024/01/14 09:49:34;;;;;;;177.77;47.53;;;;;;;;;;4989370;28;20177;-45
2024/01/14 09:52:01;;;;;;;23.60;21.88;;;;;;;;;;4992030;28;20184;-45
2024/01/14 09:54:27;;;;;;;107.68;32.95;;;;;;;;;;4990873;28;20812;-45
2024/01/14 09:56:54;;;;;;;92.00;34.87;;;;;;;;;;4992170;28;20248;-45
2024/01/14 09:59:21;;;;;;;17.70;16.05;;;;;;;;;;4991850;28;20412;-45
2024/01/14 10:01:47;;;;;;;40.75;18.05;;;;;;;;;;4990718;28;20243;-46
2024/01/14 10:04:14;;;;;;;65.80;28.17;;;;;;;;;;4989901;28;20430;-45
2024/01/14 10:06:43;;;;;;;10.20;9.15;;;;;;;;;;4991990;28;20171;-45
2024/01/14 10:09:09;;;;;;;10.13;8.70;;;;;;;;;;4991208;28;20645;-45
2024/01/14 10:11:35;;;;;;;37.95;23.60;;;;;;;;;;4992230;28;20227;-45
2024/01/14 10:14:03;;;;;;;10.48;9.23;;;;;;;;;;4991415;28;20200;-45
2024/01/14 10:16:30;;;;;;;12.70;11.40;;;;;;;;;;4991681;28;20517;-45
2024/01/14 10:18:56;;;;;;;15.23;13.07;;;;;;;;;;4991839;28;20180;-46
2024/01/14 10:21:24;;;;;;;139.23;42.60;;;;;;;;;;4992181;28;20169;-44
2024/01/14 10:23:50;;;;;;;122.60;39.55;;;;;;;;;;4990639;28;20489;-45
2024/01/14 10:26:17;;;;;;;163.17;47.50;;;;;;;;;;4984542;28;20204;-44
2024/01/14 10:28:43;;;;;;;171.50;48.92;;;;;;;;;;4991997;28;20415;-45
2024/01/14 10:31:09;;;;;;;155.53;46.17;;;;;;;;;;4991988;28;20576;-45
2024/01/14 10:33:35;;;;;;;152.23;44.20;;;;;;;;;;4990931;28;20431;-44
2024/01/14 10:36:06;;;;;;;119.38;41.05;;;;;;;;;;4991207;28;20908;-44
2024/01/14 10:38:36;;;;;;;100.95;37.30;;;;;;;;;;4982678;28;20177;-44
2024/01/14 10:41:03;;;;;;;98.93;34.80;;;;;;;;;;4994383;28;20169;-44
2024/01/14 10:43:29;;;;;;;113.97;41.65;;;;;;;;;;4986493;28;20196;-44
2024/01/14 10:45:55;;;;;;;91.78;31.67;;;;;;;;;;4995498;28;20252;-44
2024/01/14 10:48:25;;;;;;;10.95;9.45;;;;;;;;;;4993896;28;20672;-45
2024/01/14 10:50:54;;;;;;;103.80;34.08;;;;;;;;;;4995240;28;20173;-45
2024/01/14 10:53:24;;;;;;;167.52;48.90;;;;;;;;;;4994450;28;20247;-45
2024/01/14 10:56:01;;;;;;;150.48;42.78;;;;;;;;;;4995222;28;20177;-45
2024/01/14 10:58:30;;;;;;;125.45;42.10;;;;;;;;;;4994835;28;20184;-46
2024/01/14 11:00:59;;;;;;;118.53;43.45;;;;;;;;;;4992107;28;20185;-45
2024/01/14 11:03:27;;;;;;;176.52;48.75;;;;;;;;;;4993868;28;20212;-44
2024/01/14 11:05:53;;;;;;;179.27;49.38;;;;;;;;;;4993522;28;20204;-44
2024/01/14 11:08:21;;;;;;;195.05;58.90;;;;;;;;;;4992978;28;20663;-45
2024/01/14 11:10:47;;;;;;;184.00;51.03;;;;;;;;;;4997296;28;20188;-45
2024/01/14 11:13:22;;;;;;;188.93;54.40;;;;;;;;;;4975075;28;20675;-44
2024/01/14 11:15:58;;;;;;;153.65;43.67;;;;;;;;;;4984957;28;20199;-44
2024/01/14 11:18:27;;;;;;;9.65;8.68;;;;;;;;;;4986719;28;20177;-45
2024/01/14 11:20:58;;;;;;;13.95;12.77;;;;;;;;;;4994072;28;20196;-44
2024/01/14 11:23:24;;;;;;;151.63;45.08;;;;;;;;;;5011059;28;20666;-44
2024/01/14 11:25:50;;;;;;;135.68;39.03;;;;;;;;;;4983655;28;20205;-44
2024/01/14 11:28:16;;;;;;;178.05;49.45;;;;;;;;;;4986764;28;20217;-44
2024/01/14 11:30:49;;;;;;;189.93;53.03;;;;;;;;;;4994004;28;20263;-44
2024/01/14 11:33:32;;;;;;;191.05;52.78;;;;;;;;;;4993245;28;20212;-44
2024/01/14 11:36:00;;;;;;;134.48;41.22;;;;;;;;;;5000065;28;20172;-44
2024/01/14 11:38:33;;;;;;;186.77;50.95;;;;;;;;;;5009971;28;20649;-44
2024/01/14 11:41:00;;;;;;;188.05;50.25;;;;;;;;;;4995628;28;20542;-45
2024/01/14 11:43:28;;;;;;;193.57;54.72;;;;;;;;;;5012624;28;20200;-44
2024/01/14 11:45:54;;;;;;;187.88;51.28;;;;;;;;;;4994830;28;20173;-44
2024/01/14 11:48:20;;;;;;;189.23;52.77;;;;;;;;;;5007874;28;20195;-44
2024/01/14 11:50:50;;;;;;;188.10;50.27;;;;;;;;;;4987327;28;20436;-44
2024/01/14 11:53:16;;;;;;;187.95;50.80;;;;;;;;;;4983790;28;20946;-44
2024/01/14 11:55:42;;;;;;;188.30;50.97;;;;;;;;;;4993614;28;20216;-44
2024/01/14 11:58:11;;;;;;;176.45;49.67;;;;;;;;;;4997939;28;20180;-44
2024/01/14 12:00:40;;;;;;;43.92;40.03;;;;;;;;;;5009386;28;20645;-45
2024/01/14 12:03:10;;;;;;;47.35;42.35;;;;;;;;;;4973102;28;20267;-44
2024/01/14 12:05:36;;;;;;;50.00;43.28;;;;;;;;;;4993193;28;20173;-44
2024/01/14 12:08:03;;;;;;;189.40;51.22;;;;;;;;;;4993610;28;20208;-44
2024/01/14 12:10:31;;;;;;;187.30;50.67;;;;;;;;;;4993891;28;20594;-45
2024/01/14 12:12:57;;;;;;;189.80;50.72;;;;;;;;;;4992414;28;20263;-45
2024/01/14 12:15:23;;;;;;;187.10;50.07;;;;;;;;;;5001234;28;20675;-44
2024/01/14 12:17:56;;;;;;;190.17;51.13;;;;;;;;;;5007979;28;20435;-44
2024/01/14 12:20:22;;;;;;;29.92;15.02;;;;;;;;;;4993134;28;20499;-44
2024/01/14 12:22:54;;;;;;;13.90;12.60;;;;;;;;;;4992412;28;20204;-44
2024/01/14 12:25:20;;;;;;;20.70;18.90;;;;;;;;;;4972348;28;20194;-44
2024/01/14 12:27:46;;;;;;;8.67;7.77;;;;;;;;;;5008344;28;20699;-44
2024/01/14 12:30:12;;;;;;;13.03;11.83;;;;;;;;;;4998234;28;20858;-45
2024/01/14 12:32:39;;;;;;;23.60;19.38;;;;;;;;;;4992253;28;20953;-46
2024/01/14 12:35:05;;;;;;;12.52;11.43;;;;;;;;;;4992676;28;20261;-44
2024/01/14 12:37:31;;;;;;;14.82;13.55;;;;;;;;;;4997241;28;20618;-45
2024/01/14 12:39:57;;;;;;;18.58;14.00;;;;;;;;;;5009944;28;20169;-44
2024/01/14 12:42:23;;;;;;;99.70;40.70;;;;;;;;;;4992638;28;20283;-44
2024/01/14 12:44:50;;;;;;;133.40;41.90;;;;;;;;;;5011391;28;20699;-44
2024/01/14 12:47:18;;;;;;;20.75;14.73;;;;;;;;;;4995718;28;20179;-45
2024/01/14 12:49:44;;;;;;;19.08;16.33;;;;;;;;;;5006289;28;20319;-44
2024/01/14 12:52:10;;;;;;;96.43;38.90;;;;;;;;;;5001463;28;20696;-44
2024/01/14 12:54:36;;;;;;;63.97;31.13;;;;;;;;;;4992028;28;20427;-44
2024/01/14 12:57:03;;;;;;;42.85;38.70;;;;;;;;;;4996871;28;20181;-45
2024/01/14 12:59:29;;;;;;;132.20;41.10;;;;;;;;;;4991908;28;20189;-43
2024/01/14 13:01:56;;;;;;;119.55;36.85;;;;;;;;;;4992064;28;20196;-44
2024/01/14 13:04:21;;;;;;;39.50;17.27;;;;;;;;;;5009870;28;20279;-44
2024/01/14 13:06:47;;;;;;;13.50;12.17;;;;;;;;;;4993959;28;20215;-44
2024/01/14 13:09:16;;;;;;;12.93;11.87;;;;;;;;;;4992422;28;20416;-44
2024/01/14 13:11:42;;;;;;;16.75;15.45;;;;;;;;;;4992115;28;20400;-45
2024/01/14 13:14:08;;;;;;;29.38;27.27;;;;;;;;;;4991454;28;20692;-45
2024/01/14 13:16:37;;;;;;;67.03;33.33;;;;;;;;;;4992402;28;20205;-45
2024/01/14 13:19:03;;;;;;;83.18;46.25;;;;;;;;;;4992084;28;20408;-44
2024/01/14 13:21:29;;;;;;;126.78;38.65;;;;;;;;;;4991701;28;20530;-44
2024/01/14 13:23:55;;;;;;;181.15;49.83;;;;;;;;;;4991254;28;20250;-44
2024/01/14 13:26:24;;;;;;;177.68;49.28;;;;;;;;;;4992518;28;20181;-44
2024/01/14 13:28:51;;;;;;;188.20;50.17;;;;;;;;;;4992570;28;20160;-45
2024/01/14 13:31:16;;;;;;;192.13;53.95;;;;;;;;;;4992348;28;20165;-44
2024/01/14 13:33:42;;;;;;;186.57;51.07;;;;;;;;;;4991367;28;20731;-44
2024/01/14 13:36:09;;;;;;;128.32;47.95;;;;;;;;;;4990728;28;20860;-44
2024/01/14 13:38:36;;;;;;;149.40;45.50;;;;;;;;;;4992145;28;20172;-45
2024/01/14 13:41:02;;;;;;;153.95;46.97;;;;;;;;;;4992224;28;20173;-45
2024/01/14 13:43:28;;;;;;;104.18;33.97;;;;;;;;;;4991535;28;20208;-44
2024/01/14 13:45:54;;;;;;;55.07;23.23;;;;;;;;;;4990239;28;20636;-44
2024/01/14 13:48:20;;;;;;;41.30;16.83;;;;;;;;;;4991570;28;20580;-44
2024/01/14 13:50:46;;;;;;;78.60;38.30;;;;;;;;;;4991733;28;20408;-45
2024/01/14 13:53:12;;;;;;;159.60;52.03;;;;;;;;;;4991026;28;20407;-45
2024/01/14 13:55:38;;;;;;;153.10;47.67;;;;;;;;;;4992049;28;20731;-44
2024/01/14 13:58:05;;;;;;;157.37;46.30;;;;;;;;;;4991634;28;20924;-44
2024/01/14 14:00:33;;;;;;;160.45;47.55;;;;;;;;;;4991637;28;20400;-44
2024/01/14 14:02:59;;;;;;;164.75;49.13;;;;;;;;;;4990374;28;20201;-44
2024/01/14 14:05:25;;;;;;;164.70;48.93;;;;;;;;;;4988964;28;20184;-45
2024/01/14 14:07:50;;;;;;;16.60;15.30;;;;;;;;;;4996640;28;20440;-44
2024/01/14 14:10:17;;;;;;;40.80;37.67;;;;;;;;;;4991958;28;20412;-44